Clements, MN

7:15 PM CST on March 03, 2015 (GMT -0600)
Redwood Falls Municipal | Change Station
CLOSE
Current Station
Airport
Location: Redwood Falls,
Elevation: 1024 ft
Nearby Weather Stations
Active Advisory: Wind Chill Advisory Active Notice: Public Information Statement

Elev 1024 ft 44.55 °N, 95.08 °W | Updated 10 minutes ago

Snow
Snow
11 °F
Feels Like -6 °F
N
16
Wind Variable Wind from NW
Gusts 23 mph

Today
High -- | Low -- °F
--% Chance of Precip.
Yesterday
High -- | Low -- °F
Precip. -- in
6:54 AM 6:10 PM
Waxing Gibbous, 97% visible
Pressure 30.01 in
Visibility 10.0 miles
Clouds Scattered Clouds 1500 ft
Scattered Clouds 2200 ft
Mostly Cloudy 12000 ft
Windchill -6 °F
Dew Point 4 °F
Humidity 73%
Rainfall 0.00 in
Snow Depth Not available.
UV 0 out of 12
Pollen .40 out of 12
Air Quality Not available.
Flu Activity Not available.
SPECI KRWF 040105Z AUTO 31014G20KT 10SM SCT015 SCT022 BKN120 M12/M16 A3001 RMK AO2 SNE0057 P0000 T11171156

More Conditions Fewer Conditions

Pressure 30.01 in
Visibility 10.0 miles
Clouds Scattered Clouds 1500 ft
Scattered Clouds 2200 ft
Mostly Cloudy 12000 ft
Windchill -6 °F
Dew Point 4 °F
Humidity 73%
Rainfall 0.00 in
Snow Depth Not available.
UV 0 out of 12
Pollen .40 out of 12
Air Quality Not available.
Flu Activity Not available.
SPECI KRWF 040105Z AUTO 31014G20KT 10SM SCT015 SCT022 BKN120 M12/M16 A3001 RMK AO2 SNE0057 P0000 T11171156

More Conditions Fewer Conditions

10-Day Weather Forecast

Almanac

Astronomy

Mar. 03, 2015 Rise Set
Actual Time
Civil Twilight
Nautical Twilight
Astronomical Twilight
Moon
Length of Visible Light
Length of Day
Tomorrow will be .
, % of the Moon is Illuminated

Today's Extremes

State Highs State Lows

Community

WunderPhotos

Upload Photos

1,802,340 photos uploaded!

WunderBlogs® & News

Nearby

Air Quality

  Air Quality AQ Index Pollutant
Not available.

Snow Depth

Station Depth Elevation

Earthquake Activity

City Distance Mag. Time & Date
Minimum magnitude displayed is 2.5.

Coastal Water Temperatures

Place Temperature

Nearby Weather Stations

Wind Chill Advisory
Statement as of 5:04 PM CST on March 03, 2015

... Wind Chill Advisory remains in effect from midnight tonight to
9 am CST Wednesday...
... Winter Weather Advisory is cancelled...

The National Weather Service in Twin Cities/Chanhassen has
cancelled the Winter Weather Advisory.

* Timing... wind chill values dropping to 25 degrees below zero
after midnight.

* Wind chill values... 25 to 30 below zero.

* Main impact... exposed skin could freeze in less than 30
minutes.

Precautionary/preparedness actions...

A Wind Chill Advisory means that very cold air and strong winds
will combine to generate low wind chills. This will result in
frostbite and lead to hypothermia if precautions are not taken.
When venturing outdoors... make sure you wear a hat and gloves.